sensor_id;sensor_type;location;lat;lon;timestamp;temperature;humidity
11389;DHT22;5750;48.474;8.952;2022-07-29T00:01:24;22.10;99.90
11389;DHT22;5750;48.474;8.952;2022-07-29T00:03:51;22.10;99.90
11389;DHT22;5750;48.474;8.952;2022-07-29T00:06:18;22.10;99.90
11389;DHT22;5750;48.474;8.952;2022-07-29T00:08:46;22.00;99.90
11389;DHT22;5750;48.474;8.952;2022-07-29T00:11:13;21.90;99.90
11389;DHT22;5750;48.474;8.952;2022-07-29T00:13:39;21.80;99.90
11389;DHT22;5750;48.474;8.952;2022-07-29T00:16:07;21.80;99.90
11389;DHT22;5750;48.474;8.952;2022-07-29T00:18:34;21.60;99.90
11389;DHT22;5750;48.474;8.952;2022-07-29T00:21:01;21.40;99.90
11389;DHT22;5750;48.474;8.952;2022-07-29T00:23:27;21.30;99.90
11389;DHT22;5750;48.474;8.952;2022-07-29T00:25:54;21.20;99.90
11389;DHT22;5750;48.474;8.952;2022-07-29T00:28:21;21.20;99.90
11389;DHT22;5750;48.474;8.952;2022-07-29T00:30:48;21.30;99.90
11389;DHT22;5750;48.474;8.952;2022-07-29T00:33:16;21.30;99.90
11389;DHT22;5750;48.474;8.952;2022-07-29T00:35:43;21.30;99.90
11389;DHT22;5750;48.474;8.952;2022-07-29T00:38:09;21.40;99.90
11389;DHT22;5750;48.474;8.952;2022-07-29T00:40:35;21.40;99.90
11389;DHT22;5750;48.474;8.952;2022-07-29T00:43:02;21.50;99.90
11389;DHT22;5750;48.474;8.952;2022-07-29T00:45:29;21.60;99.90
11389;DHT22;5750;48.474;8.952;2022-07-29T00:47:56;21.50;99.90
11389;DHT22;5750;48.474;8.952;2022-07-29T00:50:24;21.60;99.90
11389;DHT22;5750;48.474;8.952;2022-07-29T00:52:52;21.50;99.90
11389;DHT22;5750;48.474;8.952;2022-07-29T00:55:20;21.50;99.90
11389;DHT22;5750;48.474;8.952;2022-07-29T00:57:47;21.50;99.90
11389;DHT22;5750;48.474;8.952;2022-07-29T01:00:16;21.50;99.90
11389;DHT22;5750;48.474;8.952;2022-07-29T01:02:43;21.40;99.90
11389;DHT22;5750;48.474;8.952;2022-07-29T01:05:11;21.50;99.90
11389;DHT22;5750;48.474;8.952;2022-07-29T01:07:41;21.50;99.90
11389;DHT22;5750;48.474;8.952;2022-07-29T01:10:09;21.40;99.90
11389;DHT22;5750;48.474;8.952;2022-07-29T01:12:38;21.40;99.90
11389;DHT22;5750;48.474;8.952;2022-07-29T01:15:06;21.30;99.90
11389;DHT22;5750;48.474;8.952;2022-07-29T01:17:39;21.30;99.90
11389;DHT22;5750;48.474;8.952;2022-07-29T01:20:12;21.30;99.90
11389;DHT22;5750;48.474;8.952;2022-07-29T01:23:01;21.20;99.90
11389;DHT22;5750;48.474;8.952;2022-07-29T01:25:46;21.20;99.90
11389;DHT22;5750;48.474;8.952;2022-07-29T01:28:38;21.30;99.90
11389;DHT22;5750;48.474;8.952;2022-07-29T01:31:06;21.20;99.90
11389;DHT22;5750;48.474;8.952;2022-07-29T01:33:38;21.30;99.90
11389;DHT22;5750;48.474;8.952;2022-07-29T01:36:19;21.20;99.90
11389;DHT22;5750;48.474;8.952;2022-07-29T01:38:55;21.20;99.90
11389;DHT22;5750;48.474;8.952;2022-07-29T01:41:26;21.50;99.90
11389;DHT22;5750;48.474;8.952;2022-07-29T01:43:58;21.00;99.90
11389;DHT22;5750;48.474;8.952;2022-07-29T01:46:30;21.10;99.90
11389;DHT22;5750;48.474;8.952;2022-07-29T01:49:02;21.10;99.90
11389;DHT22;5750;48.474;8.952;2022-07-29T01:51:38;21.10;99.90
11389;DHT22;5750;48.474;8.952;2022-07-29T01:54:10;21.20;99.90
11389;DHT22;5750;48.474;8.952;2022-07-29T01:56:39;21.20;99.90
11389;DHT22;5750;48.474;8.952;2022-07-29T01:59:09;21.20;99.90
11389;DHT22;5750;48.474;8.952;2022-07-29T02:01:37;21.10;99.90
11389;DHT22;5750;48.474;8.952;2022-07-29T02:04:07;21.00;99.90
11389;DHT22;5750;48.474;8.952;2022-07-29T02:06:38;21.00;99.90
11389;DHT22;5750;48.474;8.952;2022-07-29T02:09:06;21.00;99.90
11389;DHT22;5750;48.474;8.952;2022-07-29T02:11:34;20.90;99.90
11389;DHT22;5750;48.474;8.952;2022-07-29T02:17:26;21.00;99.90
11389;DHT22;5750;48.474;8.952;2022-07-29T02:19:57;21.00;99.90
11389;DHT22;5750;48.474;8.952;2022-07-29T02:22:26;21.10;99.90
11389;DHT22;5750;48.474;8.952;2022-07-29T02:24:55;21.50;99.90
11389;DHT22;5750;48.474;8.952;2022-07-29T02:27:24;20.90;99.90
11389;DHT22;5750;48.474;8.952;2022-07-29T02:29:53;20.70;99.90
11389;DHT22;5750;48.474;8.952;2022-07-29T02:32:24;20.80;99.90
11389;DHT22;5750;48.474;8.952;2022-07-29T02:34:52;21.40;99.90
11389;DHT22;5750;48.474;8.952;2022-07-29T02:37:19;20.70;99.90
11389;DHT22;5750;48.474;8.952;2022-07-29T02:39:48;21.70;99.90
11389;DHT22;5750;48.474;8.952;2022-07-29T02:42:18;20.60;99.90
11389;DHT22;5750;48.474;8.952;2022-07-29T02:44:48;20.60;99.90
11389;DHT22;5750;48.474;8.952;2022-07-29T02:47:18;22.40;99.90
11389;DHT22;5750;48.474;8.952;2022-07-29T02:49:55;20.70;99.90
11389;DHT22;5750;48.474;8.952;2022-07-29T02:52:27;20.70;99.90
11389;DHT22;5750;48.474;8.952;2022-07-29T02:54:58;20.60;99.90
11389;DHT22;5750;48.474;8.952;2022-07-29T02:57:31;20.50;99.90
11389;DHT22;5750;48.474;8.952;2022-07-29T03:00:03;21.80;99.90
11389;DHT22;5750;48.474;8.952;2022-07-29T03:02:34;20.40;99.90
11389;DHT22;5750;48.474;8.952;2022-07-29T03:05:04;22.10;99.90
11389;DHT22;5750;48.474;8.952;2022-07-29T03:07:34;20.20;99.90
11389;DHT22;5750;48.474;8.952;2022-07-29T03:10:02;22.00;99.90
11389;DHT22;5750;48.474;8.952;2022-07-29T03:12:29;20.20;99.90
11389;DHT22;5750;48.474;8.952;2022-07-29T03:14:56;20.30;99.90
11389;DHT22;5750;48.474;8.952;2022-07-29T03:17:24;20.30;99.90
11389;DHT22;5750;48.474;8.952;2022-07-29T03:19:51;21.00;99.90
11389;DHT22;5750;48.474;8.952;2022-07-29T03:22:19;20.50;99.90
11389;DHT22;5750;48.474;8.952;2022-07-29T03:24:46;20.40;99.90
11389;DHT22;5750;48.474;8.952;2022-07-29T03:27:13;22.20;99.90
11389;DHT22;5750;48.474;8.952;2022-07-29T03:29:39;22.10;99.90
11389;DHT22;5750;48.474;8.952;2022-07-29T03:32:06;20.50;99.90
11389;DHT22;5750;48.474;8.952;2022-07-29T03:34:33;20.50;99.90
11389;DHT22;5750;48.474;8.952;2022-07-29T03:37:00;20.80;99.90
11389;DHT22;5750;48.474;8.952;2022-07-29T03:39:33;21.10;99.90
11389;DHT22;5750;48.474;8.952;2022-07-29T03:42:01;21.10;99.90
11389;DHT22;5750;48.474;8.952;2022-07-29T03:44:28;20.50;99.90
11389;DHT22;5750;48.474;8.952;2022-07-29T03:46:57;20.70;99.90
11389;DHT22;5750;48.474;8.952;2022-07-29T03:49:28;20.70;99.90
11389;DHT22;5750;48.474;8.952;2022-07-29T03:51:55;20.50;99.90
11389;DHT22;5750;48.474;8.952;2022-07-29T03:54:22;20.40;99.90
11389;DHT22;5750;48.474;8.952;2022-07-29T03:56:51;20.60;99.90
11389;DHT22;5750;48.474;8.952;2022-07-29T03:59:20;20.70;99.90
11389;DHT22;5750;48.474;8.952;2022-07-29T04:01:48;20.90;99.90
11389;DHT22;5750;48.474;8.952;2022-07-29T04:04:15;20.50;99.90
11389;DHT22;5750;48.474;8.952;2022-07-29T04:06:44;23.80;99.90
11389;DHT22;5750;48.474;8.952;2022-07-29T04:09:11;20.40;99.90
11389;DHT22;5750;48.474;8.952;2022-07-29T04:11:39;20.80;99.90
11389;DHT22;5750;48.474;8.952;2022-07-29T04:14:08;20.40;99.90
11389;DHT22;5750;48.474;8.952;2022-07-29T04:16:34;20.30;99.90
11389;DHT22;5750;48.474;8.952;2022-07-29T04:19:01;20.40;99.90
11389;DHT22;5750;48.474;8.952;2022-07-29T04:21:28;20.40;99.90
11389;DHT22;5750;48.474;8.952;2022-07-29T04:23:55;20.40;99.90
11389;DHT22;5750;48.474;8.952;2022-07-29T04:26:21;20.40;99.90
11389;DHT22;5750;48.474;8.952;2022-07-29T04:28:48;20.40;99.90
11389;DHT22;5750;48.474;8.952;2022-07-29T04:31:16;20.40;99.90
11389;DHT22;5750;48.474;8.952;2022-07-29T04:33:43;20.50;99.90
11389;DHT22;5750;48.474;8.952;2022-07-29T04:36:09;20.50;99.90
11389;DHT22;5750;48.474;8.952;2022-07-29T04:38:37;20.50;99.90
11389;DHT22;5750;48.474;8.952;2022-07-29T04:41:04;20.50;99.90
11389;DHT22;5750;48.474;8.952;2022-07-29T04:43:32;20.40;99.90
11389;DHT22;5750;48.474;8.952;2022-07-29T04:45:59;20.50;99.90
11389;DHT22;5750;48.474;8.952;2022-07-29T04:48:27;20.50;99.90
11389;DHT22;5750;48.474;8.952;2022-07-29T04:50:54;20.50;99.90
11389;DHT22;5750;48.474;8.952;2022-07-29T04:53:21;20.40;99.90
11389;DHT22;5750;48.474;8.952;2022-07-29T04:55:47;20.50;99.90
11389;DHT22;5750;48.474;8.952;2022-07-29T04:58:14;22.40;99.90
11389;DHT22;5750;48.474;8.952;2022-07-29T05:00:41;21.30;99.90
11389;DHT22;5750;48.474;8.952;2022-07-29T05:03:07;20.60;99.90
11389;DHT22;5750;48.474;8.952;2022-07-29T05:05:36;21.10;99.90
11389;DHT22;5750;48.474;8.952;2022-07-29T05:08:03;20.50;99.90
11389;DHT22;5750;48.474;8.952;2022-07-29T05:10:29;20.60;99.90
11389;DHT22;5750;48.474;8.952;2022-07-29T05:12:56;22.10;99.90
11389;DHT22;5750;48.474;8.952;2022-07-29T05:15:23;20.60;99.90
11389;DHT22;5750;48.474;8.952;2022-07-29T05:17:49;20.50;99.90
11389;DHT22;5750;48.474;8.952;2022-07-29T05:20:16;20.50;99.90
11389;DHT22;5750;48.474;8.952;2022-07-29T05:22:45;20.50;99.90
11389;DHT22;5750;48.474;8.952;2022-07-29T05:25:11;20.50;99.90
11389;DHT22;5750;48.474;8.952;2022-07-29T05:27:38;20.60;99.90
11389;DHT22;5750;48.474;8.952;2022-07-29T05:30:06;20.60;99.90
11389;DHT22;5750;48.474;8.952;2022-07-29T05:32:33;20.70;99.90
11389;DHT22;5750;48.474;8.952;2022-07-29T05:34:59;21.50;99.90
11389;DHT22;5750;48.474;8.952;2022-07-29T05:37:26;22.70;99.90
11389;DHT22;5750;48.474;8.952;2022-07-29T05:39:54;20.60;99.90
11389;DHT22;5750;48.474;8.952;2022-07-29T05:42:21;20.70;99.90
11389;DHT22;5750;48.474;8.952;2022-07-29T05:44:48;20.90;99.90
11389;DHT22;5750;48.474;8.952;2022-07-29T05:47:14;20.80;99.90
11389;DHT22;5750;48.474;8.952;2022-07-29T05:49:41;20.80;99.90
11389;DHT22;5750;48.474;8.952;2022-07-29T05:52:08;22.50;99.90
11389;DHT22;5750;48.474;8.952;2022-07-29T05:54:35;20.90;99.90
11389;DHT22;5750;48.474;8.952;2022-07-29T05:57:03;21.60;99.90
11389;DHT22;5750;48.474;8.952;2022-07-29T05:59:30;21.30;99.90
11389;DHT22;5750;48.474;8.952;2022-07-29T06:01:57;21.00;99.90
11389;DHT22;5750;48.474;8.952;2022-07-29T06:04:24;21.10;99.90
11389;DHT22;5750;48.474;8.952;2022-07-29T06:06:51;21.10;99.90
11389;DHT22;5750;48.474;8.952;2022-07-29T06:09:18;21.40;99.90
11389;DHT22;5750;48.474;8.952;2022-07-29T06:11:45;21.20;99.90
11389;DHT22;5750;48.474;8.952;2022-07-29T06:14:14;21.70;99.90
11389;DHT22;5750;48.474;8.952;2022-07-29T06:16:41;22.60;99.90
11389;DHT22;5750;48.474;8.952;2022-07-29T06:19:08;21.40;99.90
11389;DHT22;5750;48.474;8.952;2022-07-29T06:21:34;21.50;99.90
11389;DHT22;5750;48.474;8.952;2022-07-29T06:24:01;21.50;99.90
11389;DHT22;5750;48.474;8.952;2022-07-29T06:26:28;22.10;99.90
11389;DHT22;5750;48.474;8.952;2022-07-29T06:28:55;21.70;99.90
11389;DHT22;5750;48.474;8.952;2022-07-29T06:31:23;21.60;99.90
11389;DHT22;5750;48.474;8.952;2022-07-29T06:33:50;21.90;99.90
11389;DHT22;5750;48.474;8.952;2022-07-29T06:36:16;22.10;99.90
11389;DHT22;5750;48.474;8.952;2022-07-29T06:38:43;22.00;99.90
11389;DHT22;5750;48.474;8.952;2022-07-29T06:41:10;22.10;99.90
11389;DHT22;5750;48.474;8.952;2022-07-29T06:43:39;22.20;99.90
11389;DHT22;5750;48.474;8.952;2022-07-29T06:46:08;22.40;99.90
11389;DHT22;5750;48.474;8.952;2022-07-29T06:48:37;22.50;99.90
11389;DHT22;5750;48.474;8.952;2022-07-29T06:51:05;22.50;99.90
11389;DHT22;5750;48.474;8.952;2022-07-29T06:53:33;22.60;99.90
11389;DHT22;5750;48.474;8.952;2022-07-29T06:56:00;23.80;99.90
11389;DHT22;5750;48.474;8.952;2022-07-29T06:58:28;24.30;99.90
11389;DHT22;5750;48.474;8.952;2022-07-29T07:00:56;22.90;99.90
11389;DHT22;5750;48.474;8.952;2022-07-29T07:03:23;25.00;99.90
11389;DHT22;5750;48.474;8.952;2022-07-29T07:05:52;22.80;99.90
11389;DHT22;5750;48.474;8.952;2022-07-29T07:08:19;24.70;99.90
11389;DHT22;5750;48.474;8.952;2022-07-29T07:10:47;23.20;99.90
11389;DHT22;5750;48.474;8.952;2022-07-29T07:13:14;22.90;99.90
11389;DHT22;5750;48.474;8.952;2022-07-29T07:15:42;22.80;99.90
11389;DHT22;5750;48.474;8.952;2022-07-29T07:18:09;22.90;99.90
11389;DHT22;5750;48.474;8.952;2022-07-29T07:20:36;23.60;99.90
11389;DHT22;5750;48.474;8.952;2022-07-29T07:25:31;22.90;99.90
11389;DHT22;5750;48.474;8.952;2022-07-29T07:27:58;25.00;99.90
11389;DHT22;5750;48.474;8.952;2022-07-29T07:30:25;23.20;99.90
11389;DHT22;5750;48.474;8.952;2022-07-29T07:32:52;23.50;99.90
11389;DHT22;5750;48.474;8.952;2022-07-29T07:35:19;25.40;99.90
11389;DHT22;5750;48.474;8.952;2022-07-29T07:37:46;23.70;99.90
11389;DHT22;5750;48.474;8.952;2022-07-29T07:40:15;24.20;99.90
11389;DHT22;5750;48.474;8.952;2022-07-29T07:42:41;26.30;99.90
11389;DHT22;5750;48.474;8.952;2022-07-29T07:45:09;24.70;99.90
11389;DHT22;5750;48.474;8.952;2022-07-29T07:47:36;24.80;99.90
11389;DHT22;5750;48.474;8.952;2022-07-29T07:50:05;25.10;99.90
11389;DHT22;5750;48.474;8.952;2022-07-29T07:52:32;24.90;99.90
11389;DHT22;5750;48.474;8.952;2022-07-29T07:54:59;25.00;99.90
11389;DHT22;5750;48.474;8.952;2022-07-29T07:57:27;24.80;99.90
11389;DHT22;5750;48.474;8.952;2022-07-29T07:59:54;25.60;99.90
11389;DHT22;5750;48.474;8.952;2022-07-29T08:02:21;25.20;99.90
11389;DHT22;5750;48.474;8.952;2022-07-29T08:04:47;25.50;99.90
11389;DHT22;5750;48.474;8.952;2022-07-29T08:07:14;25.90;99.90
11389;DHT22;5750;48.474;8.952;2022-07-29T08:09:41;25.90;99.90
11389;DHT22;5750;48.474;8.952;2022-07-29T08:12:07;25.90;99.90
11389;DHT22;5750;48.474;8.952;2022-07-29T08:14:36;26.10;99.90
11389;DHT22;5750;48.474;8.952;2022-07-29T08:17:02;26.60;99.90
11389;DHT22;5750;48.474;8.952;2022-07-29T08:19:29;26.60;99.90
11389;DHT22;5750;48.474;8.952;2022-07-29T08:21:56;26.50;99.90
11389;DHT22;5750;48.474;8.952;2022-07-29T08:24:22;26.80;99.90
11389;DHT22;5750;48.474;8.952;2022-07-29T08:27:07;27.20;99.90
11389;DHT22;5750;48.474;8.952;2022-07-29T08:29:34;27.10;99.90
11389;DHT22;5750;48.474;8.952;2022-07-29T08:32:02;27.50;99.90
11389;DHT22;5750;48.474;8.952;2022-07-29T08:34:29;27.20;99.20
11389;DHT22;5750;48.474;8.952;2022-07-29T08:36:55;28.30;99.10
11389;DHT22;5750;48.474;8.952;2022-07-29T08:39:23;27.70;98.80
11389;DHT22;5750;48.474;8.952;2022-07-29T08:41:50;27.70;99.30
11389;DHT22;5750;48.474;8.952;2022-07-29T08:44:17;28.30;98.20
11389;DHT22;5750;48.474;8.952;2022-07-29T08:46:44;27.90;99.70
11389;DHT22;5750;48.474;8.952;2022-07-29T08:49:12;28.10;99.70
11389;DHT22;5750;48.474;8.952;2022-07-29T08:51:40;27.80;99.10
11389;DHT22;5750;48.474;8.952;2022-07-29T08:54:08;27.90;98.00
11389;DHT22;5750;48.474;8.952;2022-07-29T08:56:35;28.10;98.40
11389;DHT22;5750;48.474;8.952;2022-07-29T08:59:03;28.30;99.00
11389;DHT22;5750;48.474;8.952;2022-07-29T09:01:33;28.50;97.30
11389;DHT22;5750;48.474;8.952;2022-07-29T09:04:01;28.70;97.30
11389;DHT22;5750;48.474;8.952;2022-07-29T09:06:32;29.00;94.80
11389;DHT22;5750;48.474;8.952;2022-07-29T09:09:01;28.90;95.10
11389;DHT22;5750;48.474;8.952;2022-07-29T09:11:28;28.60;94.70
11389;DHT22;5750;48.474;8.952;2022-07-29T09:13:54;28.90;95.20
11389;DHT22;5750;48.474;8.952;2022-07-29T09:16:21;28.60;94.10
11389;DHT22;5750;48.474;8.952;2022-07-29T09:18:48;29.40;96.70
11389;DHT22;5750;48.474;8.952;2022-07-29T09:21:16;28.30;95.20
11389;DHT22;5750;48.474;8.952;2022-07-29T09:24:04;28.00;95.90
11389;DHT22;5750;48.474;8.952;2022-07-29T09:26:33;27.70;96.50
11389;DHT22;5750;48.474;8.952;2022-07-29T09:29:08;27.60;97.50
11389;DHT22;5750;48.474;8.952;2022-07-29T09:31:37;27.70;96.80
11389;DHT22;5750;48.474;8.952;2022-07-29T09:34:05;27.90;95.70
11389;DHT22;5750;48.474;8.952;2022-07-29T09:36:38;27.80;95.90
11389;DHT22;5750;48.474;8.952;2022-07-29T09:39:07;28.20;95.00
11389;DHT22;5750;48.474;8.952;2022-07-29T09:41:53;28.20;95.40
11389;DHT22;5750;48.474;8.952;2022-07-29T09:44:20;28.30;95.50
11389;DHT22;5750;48.474;8.952;2022-07-29T09:46:57;28.60;93.60
11389;DHT22;5750;48.474;8.952;2022-07-29T09:49:25;28.80;93.20
11389;DHT22;5750;48.474;8.952;2022-07-29T09:52:04;29.10;93.00
11389;DHT22;5750;48.474;8.952;2022-07-29T09:54:33;29.50;92.40
11389;DHT22;5750;48.474;8.952;2022-07-29T09:57:04;29.80;90.10
11389;DHT22;5750;48.474;8.952;2022-07-29T09:59:31;30.10;85.70
11389;DHT22;5750;48.474;8.952;2022-07-29T10:01:58;30.60;85.40
11389;DHT22;5750;48.474;8.952;2022-07-29T10:04:37;30.90;82.20
11389;DHT22;5750;48.474;8.952;2022-07-29T10:07:04;31.30;87.10
11389;DHT22;5750;48.474;8.952;2022-07-29T10:09:33;31.20;85.80
11389;DHT22;5750;48.474;8.952;2022-07-29T10:12:08;31.40;76.30
11389;DHT22;5750;48.474;8.952;2022-07-29T10:14:37;31.30;77.00
11389;DHT22;5750;48.474;8.952;2022-07-29T10:17:05;31.20;75.80
11389;DHT22;5750;48.474;8.952;2022-07-29T10:19:33;31.30;73.30
11389;DHT22;5750;48.474;8.952;2022-07-29T10:22:06;31.00;75.70
11389;DHT22;5750;48.474;8.952;2022-07-29T10:24:35;30.50;72.00
11389;DHT22;5750;48.474;8.952;2022-07-29T10:27:08;29.90;74.60
11389;DHT22;5750;48.474;8.952;2022-07-29T10:29:35;29.70;75.80
11389;DHT22;5750;48.474;8.952;2022-07-29T10:32:22;29.40;72.30
11389;DHT22;5750;48.474;8.952;2022-07-29T10:35:21;29.10;74.90
11389;DHT22;5750;48.474;8.952;2022-07-29T10:38:10;28.70;74.20
11389;DHT22;5750;48.474;8.952;2022-07-29T10:40:51;28.70;75.60
11389;DHT22;5750;48.474;8.952;2022-07-29T10:43:42;28.50;75.60
11389;DHT22;5750;48.474;8.952;2022-07-29T10:46:10;28.40;73.30
11389;DHT22;5750;48.474;8.952;2022-07-29T10:51:55;28.40;74.90
11389;DHT22;5750;48.474;8.952;2022-07-29T10:54:38;28.50;74.30
11389;DHT22;5750;48.474;8.952;2022-07-29T10:57:14;28.60;75.20
11389;DHT22;5750;48.474;8.952;2022-07-29T10:59:42;28.60;73.60
11389;DHT22;5750;48.474;8.952;2022-07-29T11:02:41;28.70;71.60
11389;DHT22;5750;48.474;8.952;2022-07-29T11:05:10;28.70;76.40
11389;DHT22;5750;48.474;8.952;2022-07-29T11:07:38;28.60;74.00
11389;DHT22;5750;48.474;8.952;2022-07-29T11:10:20;28.60;73.30
11389;DHT22;5750;48.474;8.952;2022-07-29T11:12:48;28.50;73.90
11389;DHT22;5750;48.474;8.952;2022-07-29T11:15:18;28.90;76.30
11389;DHT22;5750;48.474;8.952;2022-07-29T11:18:08;28.70;79.10
11389;DHT22;5750;48.474;8.952;2022-07-29T11:20:39;28.50;85.60
11389;DHT22;5750;48.474;8.952;2022-07-29T11:23:24;28.50;87.90
11389;DHT22;5750;48.474;8.952;2022-07-29T11:26:14;28.60;85.50
11389;DHT22;5750;48.474;8.952;2022-07-29T11:28:51;28.70;88.30
11389;DHT22;5750;48.474;8.952;2022-07-29T11:31:29;28.80;89.60
11389;DHT22;5750;48.474;8.952;2022-07-29T11:34:16;28.80;90.90
11389;DHT22;5750;48.474;8.952;2022-07-29T11:37:13;28.70;91.30
11389;DHT22;5750;48.474;8.952;2022-07-29T11:39:42;28.60;91.20
11389;DHT22;5750;48.474;8.952;2022-07-29T11:42:38;28.50;92.40
11389;DHT22;5750;48.474;8.952;2022-07-29T11:45:09;28.60;92.80
11389;DHT22;5750;48.474;8.952;2022-07-29T11:47:37;28.60;92.70
11389;DHT22;5750;48.474;8.952;2022-07-29T11:50:07;28.50;92.00
11389;DHT22;5750;48.474;8.952;2022-07-29T11:52:36;28.60;92.00
11389;DHT22;5750;48.474;8.952;2022-07-29T11:55:09;28.60;91.50
11389;DHT22;5750;48.474;8.952;2022-07-29T11:57:36;28.80;90.70
11389;DHT22;5750;48.474;8.952;2022-07-29T12:00:05;28.80;91.50
11389;DHT22;5750;48.474;8.952;2022-07-29T12:02:43;28.70;90.90
11389;DHT22;5750;48.474;8.952;2022-07-29T12:05:10;28.60;91.00
11389;DHT22;5750;48.474;8.952;2022-07-29T12:07:39;28.50;91.30
11389;DHT22;5750;48.474;8.952;2022-07-29T12:10:07;28.50;91.40
11389;DHT22;5750;48.474;8.952;2022-07-29T12:12:35;28.30;91.60
11389;DHT22;5750;48.474;8.952;2022-07-29T12:15:15;28.70;91.10
11389;DHT22;5750;48.474;8.952;2022-07-29T12:17:47;28.30;90.80
11389;DHT22;5750;48.474;8.952;2022-07-29T12:20:22;28.30;90.90
11389;DHT22;5750;48.474;8.952;2022-07-29T12:22:49;28.30;92.60
11389;DHT22;5750;48.474;8.952;2022-07-29T12:25:19;28.80;92.50
11389;DHT22;5750;48.474;8.952;2022-07-29T12:27:46;28.70;92.00
11389;DHT22;5750;48.474;8.952;2022-07-29T12:30:14;29.00;90.20
11389;DHT22;5750;48.474;8.952;2022-07-29T12:32:42;28.90;92.70
11389;DHT22;5750;48.474;8.952;2022-07-29T12:35:12;29.00;93.10
11389;DHT22;5750;48.474;8.952;2022-07-29T12:37:40;29.00;91.80
11389;DHT22;5750;48.474;8.952;2022-07-29T12:40:09;29.20;90.10
11389;DHT22;5750;48.474;8.952;2022-07-29T12:42:36;29.20;90.20
11389;DHT22;5750;48.474;8.952;2022-07-29T12:45:04;29.20;90.00
11389;DHT22;5750;48.474;8.952;2022-07-29T12:47:31;29.20;89.00
11389;DHT22;5750;48.474;8.952;2022-07-29T12:50:09;29.20;89.50
11389;DHT22;5750;48.474;8.952;2022-07-29T12:52:37;29.10;91.30
11389;DHT22;5750;48.474;8.952;2022-07-29T12:55:05;29.10;91.10
11389;DHT22;5750;48.474;8.952;2022-07-29T12:57:32;29.00;91.50
11389;DHT22;5750;48.474;8.952;2022-07-29T13:00:11;29.00;90.20
11389;DHT22;5750;48.474;8.952;2022-07-29T13:02:40;28.80;90.00
11389;DHT22;5750;48.474;8.952;2022-07-29T13:05:09;28.30;90.20
11389;DHT22;5750;48.474;8.952;2022-07-29T13:07:38;28.10;88.30
11389;DHT22;5750;48.474;8.952;2022-07-29T13:10:13;28.10;87.40
11389;DHT22;5750;48.474;8.952;2022-07-29T13:13:02;27.60;89.10
11389;DHT22;5750;48.474;8.952;2022-07-29T13:15:29;27.60;90.00
11389;DHT22;5750;48.474;8.952;2022-07-29T13:17:56;27.50;90.70
11389;DHT22;5750;48.474;8.952;2022-07-29T13:20:24;28.40;90.90
11389;DHT22;5750;48.474;8.952;2022-07-29T13:22:54;27.30;89.80
11389;DHT22;5750;48.474;8.952;2022-07-29T13:25:25;27.40;89.50
11389;DHT22;5750;48.474;8.952;2022-07-29T13:27:51;28.20;91.50
11389;DHT22;5750;48.474;8.952;2022-07-29T13:30:20;27.30;90.60
11389;DHT22;5750;48.474;8.952;2022-07-29T13:32:48;27.40;90.80
11389;DHT22;5750;48.474;8.952;2022-07-29T13:35:15;27.30;90.80
11389;DHT22;5750;48.474;8.952;2022-07-29T13:37:41;27.30;91.20
11389;DHT22;5750;48.474;8.952;2022-07-29T13:40:11;27.30;91.80
11389;DHT22;5750;48.474;8.952;2022-07-29T13:42:38;27.40;91.20
11389;DHT22;5750;48.474;8.952;2022-07-29T13:45:06;28.00;90.90
11389;DHT22;5750;48.474;8.952;2022-07-29T13:47:33;27.40;90.30
11389;DHT22;5750;48.474;8.952;2022-07-29T13:50:00;27.30;90.30
11389;DHT22;5750;48.474;8.952;2022-07-29T13:52:27;27.40;90.40
11389;DHT22;5750;48.474;8.952;2022-07-29T13:54:54;28.40;90.60
11389;DHT22;5750;48.474;8.952;2022-07-29T13:57:22;27.10;89.00
11389;DHT22;5750;48.474;8.952;2022-07-29T13:59:48;27.00;91.00
11389;DHT22;5750;48.474;8.952;2022-07-29T14:02:16;27.10;90.30
11389;DHT22;5750;48.474;8.952;2022-07-29T14:04:43;27.00;89.00
11389;DHT22;5750;48.474;8.952;2022-07-29T14:07:10;27.00;90.20
11389;DHT22;5750;48.474;8.952;2022-07-29T14:09:38;27.00;90.00
11389;DHT22;5750;48.474;8.952;2022-07-29T14:12:05;27.20;90.30
11389;DHT22;5750;48.474;8.952;2022-07-29T14:14:33;27.10;90.90
11389;DHT22;5750;48.474;8.952;2022-07-29T14:17:02;27.20;90.90
11389;DHT22;5750;48.474;8.952;2022-07-29T14:19:31;27.30;90.80
11389;DHT22;5750;48.474;8.952;2022-07-29T14:22:01;27.20;91.80
11389;DHT22;5750;48.474;8.952;2022-07-29T14:24:28;27.40;91.20
11389;DHT22;5750;48.474;8.952;2022-07-29T14:26:55;27.60;91.20
11389;DHT22;5750;48.474;8.952;2022-07-29T14:29:21;27.50;90.60
11389;DHT22;5750;48.474;8.952;2022-07-29T14:31:49;27.40;89.80
11389;DHT22;5750;48.474;8.952;2022-07-29T14:34:16;27.60;87.10
11389;DHT22;5750;48.474;8.952;2022-07-29T14:36:43;27.30;88.10
11389;DHT22;5750;48.474;8.952;2022-07-29T14:39:09;27.40;89.60
11389;DHT22;5750;48.474;8.952;2022-07-29T14:41:36;27.40;90.10
11389;DHT22;5750;48.474;8.952;2022-07-29T14:44:03;27.30;90.00
11389;DHT22;5750;48.474;8.952;2022-07-29T14:46:30;27.40;90.20
11389;DHT22;5750;48.474;8.952;2022-07-29T14:48:58;27.30;90.40
11389;DHT22;5750;48.474;8.952;2022-07-29T14:51:25;27.30;90.80
11389;DHT22;5750;48.474;8.952;2022-07-29T14:53:52;27.30;90.80
11389;DHT22;5750;48.474;8.952;2022-07-29T14:56:19;27.40;92.30
11389;DHT22;5750;48.474;8.952;2022-07-29T14:58:45;27.20;92.30
11389;DHT22;5750;48.474;8.952;2022-07-29T15:01:12;27.30;91.50
11389;DHT22;5750;48.474;8.952;2022-07-29T15:03:39;27.20;92.00
11389;DHT22;5750;48.474;8.952;2022-07-29T15:06:07;27.60;90.60
11389;DHT22;5750;48.474;8.952;2022-07-29T15:08:34;27.30;91.10
11389;DHT22;5750;48.474;8.952;2022-07-29T15:11:00;27.30;90.30
11389;DHT22;5750;48.474;8.952;2022-07-29T15:13:27;27.40;90.20
11389;DHT22;5750;48.474;8.952;2022-07-29T15:15:55;27.40;91.20
11389;DHT22;5750;48.474;8.952;2022-07-29T15:18:21;27.40;91.70
11389;DHT22;5750;48.474;8.952;2022-07-29T15:20:48;27.40;90.80
11389;DHT22;5750;48.474;8.952;2022-07-29T15:23:16;27.30;91.70
11389;DHT22;5750;48.474;8.952;2022-07-29T15:25:43;27.30;92.40
11389;DHT22;5750;48.474;8.952;2022-07-29T15:28:09;27.60;91.90
11389;DHT22;5750;48.474;8.952;2022-07-29T15:30:37;27.60;91.30
11389;DHT22;5750;48.474;8.952;2022-07-29T15:33:06;27.40;90.30
11389;DHT22;5750;48.474;8.952;2022-07-29T15:35:34;27.70;90.80
11389;DHT22;5750;48.474;8.952;2022-07-29T15:38:01;27.50;91.20
11389;DHT22;5750;48.474;8.952;2022-07-29T15:40:29;27.60;91.50
11389;DHT22;5750;48.474;8.952;2022-07-29T15:42:56;27.60;90.00
11389;DHT22;5750;48.474;8.952;2022-07-29T15:45:26;27.80;90.70
11389;DHT22;5750;48.474;8.952;2022-07-29T15:47:53;27.50;90.30
11389;DHT22;5750;48.474;8.952;2022-07-29T15:50:20;27.80;90.10
11389;DHT22;5750;48.474;8.952;2022-07-29T15:52:46;27.50;89.40
11389;DHT22;5750;48.474;8.952;2022-07-29T15:55:13;27.30;90.80
11389;DHT22;5750;48.474;8.952;2022-07-29T15:57:42;27.60;90.60
11389;DHT22;5750;48.474;8.952;2022-07-29T16:00:09;27.50;90.30
11389;DHT22;5750;48.474;8.952;2022-07-29T16:02:36;27.30;90.90
11389;DHT22;5750;48.474;8.952;2022-07-29T16:05:03;27.30;90.70
11389;DHT22;5750;48.474;8.952;2022-07-29T16:07:30;27.40;89.00